sensor_id;sensor_type;location;lat;lon;timestamp;P1;durP1;ratioP1;P2;durP2;ratioP2
23539;SDS011;11947;50.810;4.394;2023-08-31T00:01:25;7.32;;;4.07;;
23539;SDS011;11947;50.810;4.394;2023-08-31T00:06:23;13.50;;;4.55;;
23539;SDS011;11947;50.810;4.394;2023-08-31T00:11:40;8.43;;;4.55;;
23539;SDS011;11947;50.810;4.394;2023-08-31T00:14:15;7.40;;;4.57;;
23539;SDS011;11947;50.810;4.394;2023-08-31T00:19:31;7.88;;;4.75;;
23539;SDS011;11947;50.810;4.394;2023-08-31T00:22:14;8.18;;;4.93;;
23539;SDS011;11947;50.810;4.394;2023-08-31T00:24:40;10.15;;;4.75;;
23539;SDS011;11947;50.810;4.394;2023-08-31T00:27:46;12.77;;;5.15;;
23539;SDS011;11947;50.810;4.394;2023-08-31T00:30:16;12.05;;;5.10;;
23539;SDS011;11947;50.810;4.394;2023-08-31T00:35:45;13.13;;;5.22;;
23539;SDS011;11947;50.810;4.394;2023-08-31T00:38:17;9.70;;;5.57;;
23539;SDS011;11947;50.810;4.394;2023-08-31T00:41:04;9.75;;;4.95;;
23539;SDS011;11947;50.810;4.394;2023-08-31T00:43:43;12.23;;;5.32;;
23539;SDS011;11947;50.810;4.394;2023-08-31T00:49:13;11.95;;;5.68;;
23539;SDS011;11947;50.810;4.394;2023-08-31T00:54:17;10.52;;;5.18;;
23539;SDS011;11947;50.810;4.394;2023-08-31T00:59:37;9.55;;;5.38;;
23539;SDS011;11947;50.810;4.394;2023-08-31T01:02:17;11.73;;;4.93;;
23539;SDS011;11947;50.810;4.394;2023-08-31T01:05:29;12.18;;;5.50;;
23539;SDS011;11947;50.810;4.394;2023-08-31T01:47:03;10.48;;;5.57;;
23539;SDS011;11947;50.810;4.394;2023-08-31T02:05:06;9.50;;;4.80;;
23539;SDS011;11947;50.810;4.394;2023-08-31T02:07:34;10.18;;;4.82;;
23539;SDS011;11947;50.810;4.394;2023-08-31T02:10:24;8.57;;;4.80;;
23539;SDS011;11947;50.810;4.394;2023-08-31T02:12:48;12.57;;;5.00;;
23539;SDS011;11947;50.810;4.394;2023-08-31T02:15:14;8.55;;;5.07;;
23539;SDS011;11947;50.810;4.394;2023-08-31T02:17:40;11.50;;;5.03;;
23539;SDS011;11947;50.810;4.394;2023-08-31T02:25:38;11.23;;;5.35;;
23539;SDS011;11947;50.810;4.394;2023-08-31T02:28:04;9.30;;;5.05;;
23539;SDS011;11947;50.810;4.394;2023-08-31T02:30:30;11.98;;;5.70;;
23539;SDS011;11947;50.810;4.394;2023-08-31T02:32:56;14.32;;;5.70;;
23539;SDS011;11947;50.810;4.394;2023-08-31T02:35:30;12.13;;;5.25;;
23539;SDS011;11947;50.810;4.394;2023-08-31T02:37:56;9.43;;;5.33;;
23539;SDS011;11947;50.810;4.394;2023-08-31T02:46:04;15.75;;;5.80;;
23539;SDS011;11947;50.810;4.394;2023-08-31T02:48:33;13.23;;;5.60;;
23539;SDS011;11947;50.810;4.394;2023-08-31T02:50:59;12.40;;;5.35;;
23539;SDS011;11947;50.810;4.394;2023-08-31T02:53:28;10.65;;;5.78;;
23539;SDS011;11947;50.810;4.394;2023-08-31T02:55:54;11.43;;;5.38;;
23539;SDS011;11947;50.810;4.394;2023-08-31T02:58:20;15.82;;;5.60;;
23539;SDS011;11947;50.810;4.394;2023-08-31T03:00:46;11.98;;;5.00;;
23539;SDS011;11947;50.810;4.394;2023-08-31T03:03:16;12.98;;;5.90;;
23539;SDS011;11947;50.810;4.394;2023-08-31T03:05:43;9.93;;;5.25;;
23539;SDS011;11947;50.810;4.394;2023-08-31T03:08:10;18.75;;;5.43;;
23539;SDS011;11947;50.810;4.394;2023-08-31T03:10:36;12.18;;;5.45;;
23539;SDS011;11947;50.810;4.394;2023-08-31T03:13:02;9.05;;;4.93;;
23539;SDS011;11947;50.810;4.394;2023-08-31T03:15:32;12.15;;;5.25;;
23539;SDS011;11947;50.810;4.394;2023-08-31T03:18:01;12.18;;;5.50;;
23539;SDS011;11947;50.810;4.394;2023-08-31T03:20:27;9.80;;;5.00;;
23539;SDS011;11947;50.810;4.394;2023-08-31T03:22:53;15.50;;;5.65;;
23539;SDS011;11947;50.810;4.394;2023-08-31T03:25:19;8.63;;;5.05;;
23539;SDS011;11947;50.810;4.394;2023-08-31T03:27:44;10.68;;;5.30;;
23539;SDS011;11947;50.810;4.394;2023-08-31T03:30:10;8.45;;;5.20;;
23539;SDS011;11947;50.810;4.394;2023-08-31T03:32:44;8.63;;;4.93;;
23539;SDS011;11947;50.810;4.394;2023-08-31T03:35:15;10.18;;;4.85;;
23539;SDS011;11947;50.810;4.394;2023-08-31T03:37:41;12.02;;;4.93;;
23539;SDS011;11947;50.810;4.394;2023-08-31T03:40:07;15.18;;;4.95;;
23539;SDS011;11947;50.810;4.394;2023-08-31T03:42:34;13.68;;;4.93;;
23539;SDS011;11947;50.810;4.394;2023-08-31T03:45:00;13.50;;;5.25;;
23539;SDS011;11947;50.810;4.394;2023-08-31T03:47:28;9.25;;;5.18;;
23539;SDS011;11947;50.810;4.394;2023-08-31T03:49:54;12.05;;;4.95;;
23539;SDS011;11947;50.810;4.394;2023-08-31T03:52:20;10.35;;;4.90;;
23539;SDS011;11947;50.810;4.394;2023-08-31T03:54:46;14.40;;;4.63;;
23539;SDS011;11947;50.810;4.394;2023-08-31T03:57:11;9.45;;;4.43;;
23539;SDS011;11947;50.810;4.394;2023-08-31T04:04:48;9.68;;;4.60;;
23539;SDS011;11947;50.810;4.394;2023-08-31T04:07:13;11.65;;;4.22;;
23539;SDS011;11947;50.810;4.394;2023-08-31T04:09:49;9.85;;;4.50;;
23539;SDS011;11947;50.810;4.394;2023-08-31T04:20:01;7.05;;;4.38;;
23539;SDS011;11947;50.810;4.394;2023-08-31T04:22:47;8.25;;;4.50;;
23539;SDS011;11947;50.810;4.394;2023-08-31T04:25:13;10.07;;;4.93;;
23539;SDS011;11947;50.810;4.394;2023-08-31T04:27:39;8.55;;;4.32;;
23539;SDS011;11947;50.810;4.394;2023-08-31T04:30:05;9.65;;;4.60;;
23539;SDS011;11947;50.810;4.394;2023-08-31T04:32:32;13.13;;;4.72;;
23539;SDS011;11947;50.810;4.394;2023-08-31T05:32:23;7.90;;;5.20;;
23539;SDS011;11947;50.810;4.394;2023-08-31T05:34:52;13.07;;;5.70;;
23539;SDS011;11947;50.810;4.394;2023-08-31T05:37:18;11.05;;;5.53;;
23539;SDS011;11947;50.810;4.394;2023-08-31T05:39:47;11.75;;;5.32;;
23539;SDS011;11947;50.810;4.394;2023-08-31T05:42:15;10.75;;;5.57;;
23539;SDS011;11947;50.810;4.394;2023-08-31T05:44:42;9.73;;;5.47;;
23539;SDS011;11947;50.810;4.394;2023-08-31T05:47:08;13.60;;;5.65;;
23539;SDS011;11947;50.810;4.394;2023-08-31T05:49:34;16.17;;;5.20;;
23539;SDS011;11947;50.810;4.394;2023-08-31T05:52:05;17.75;;;6.75;;
23539;SDS011;11947;50.810;4.394;2023-08-31T05:54:34;14.88;;;6.13;;
23539;SDS011;11947;50.810;4.394;2023-08-31T05:56:59;19.98;;;6.07;;
23539;SDS011;11947;50.810;4.394;2023-08-31T05:59:28;17.88;;;5.38;;
23539;SDS011;11947;50.810;4.394;2023-08-31T06:02:03;19.70;;;6.05;;
23539;SDS011;11947;50.810;4.394;2023-08-31T06:04:29;18.60;;;5.78;;
23539;SDS011;11947;50.810;4.394;2023-08-31T06:06:56;18.80;;;6.03;;
23539;SDS011;11947;50.810;4.394;2023-08-31T06:09:24;13.32;;;5.60;;
23539;SDS011;11947;50.810;4.394;2023-08-31T06:14:58;20.23;;;6.18;;
23539;SDS011;11947;50.810;4.394;2023-08-31T06:17:25;23.45;;;6.10;;
23539;SDS011;11947;50.810;4.394;2023-08-31T06:19:53;13.02;;;5.60;;
23539;SDS011;11947;50.810;4.394;2023-08-31T06:22:18;19.13;;;6.13;;
23539;SDS011;11947;50.810;4.394;2023-08-31T06:24:47;15.35;;;5.63;;
23539;SDS011;11947;50.810;4.394;2023-08-31T06:27:12;13.93;;;5.45;;
23539;SDS011;11947;50.810;4.394;2023-08-31T06:29:41;14.45;;;5.72;;
23539;SDS011;11947;50.810;4.394;2023-08-31T06:32:13;18.92;;;5.47;;
23539;SDS011;11947;50.810;4.394;2023-08-31T07:18:46;14.35;;;4.40;;
23539;SDS011;11947;50.810;4.394;2023-08-31T07:21:12;14.27;;;4.30;;
23539;SDS011;11947;50.810;4.394;2023-08-31T07:23:44;14.32;;;4.55;;
23539;SDS011;11947;50.810;4.394;2023-08-31T07:26:10;12.97;;;4.53;;
23539;SDS011;11947;50.810;4.394;2023-08-31T08:25:29;12.70;;;4.00;;
23539;SDS011;11947;50.810;4.394;2023-08-31T08:27:54;10.00;;;4.22;;
23539;SDS011;11947;50.810;4.394;2023-08-31T08:30:20;15.50;;;3.97;;
23539;SDS011;11947;50.810;4.394;2023-08-31T08:32:46;13.57;;;4.50;;
23539;SDS011;11947;50.810;4.394;2023-08-31T08:35:11;9.45;;;4.10;;
23539;SDS011;11947;50.810;4.394;2023-08-31T08:37:37;12.93;;;4.72;;
23539;SDS011;11947;50.810;4.394;2023-08-31T08:40:03;13.75;;;4.65;;
23539;SDS011;11947;50.810;4.394;2023-08-31T08:42:29;14.43;;;4.53;;
23539;SDS011;11947;50.810;4.394;2023-08-31T08:44:57;10.27;;;4.25;;
23539;SDS011;11947;50.810;4.394;2023-08-31T08:47:23;14.60;;;5.25;;
23539;SDS011;11947;50.810;4.394;2023-08-31T08:49:50;10.55;;;4.15;;
23539;SDS011;11947;50.810;4.394;2023-08-31T08:52:18;14.57;;;4.20;;
23539;SDS011;11947;50.810;4.394;2023-08-31T08:54:44;10.60;;;3.97;;
23539;SDS011;11947;50.810;4.394;2023-08-31T08:57:10;11.93;;;4.65;;
23539;SDS011;11947;50.810;4.394;2023-08-31T08:59:35;10.18;;;4.15;;
23539;SDS011;11947;50.810;4.394;2023-08-31T09:02:01;11.93;;;4.22;;
23539;SDS011;11947;50.810;4.394;2023-08-31T09:04:29;12.98;;;4.22;;
23539;SDS011;11947;50.810;4.394;2023-08-31T09:06:55;11.40;;;4.53;;
23539;SDS011;11947;50.810;4.394;2023-08-31T09:09:21;15.70;;;4.63;;
23539;SDS011;11947;50.810;4.394;2023-08-31T09:11:47;11.13;;;3.67;;
23539;SDS011;11947;50.810;4.394;2023-08-31T09:14:15;9.30;;;4.22;;
23539;SDS011;11947;50.810;4.394;2023-08-31T09:16:45;13.30;;;4.40;;
23539;SDS011;11947;50.810;4.394;2023-08-31T09:19:22;11.98;;;4.88;;
23539;SDS011;11947;50.810;4.394;2023-08-31T09:21:50;11.80;;;4.07;;
23539;SDS011;11947;50.810;4.394;2023-08-31T09:24:16;10.80;;;4.10;;
23539;SDS011;11947;50.810;4.394;2023-08-31T09:26:57;10.30;;;4.32;;
23539;SDS011;11947;50.810;4.394;2023-08-31T09:29:23;10.38;;;4.53;;
23539;SDS011;11947;50.810;4.394;2023-08-31T09:31:49;13.90;;;5.30;;
23539;SDS011;11947;50.810;4.394;2023-08-31T09:34:15;12.57;;;4.28;;
23539;SDS011;11947;50.810;4.394;2023-08-31T09:36:42;9.70;;;4.25;;
23539;SDS011;11947;50.810;4.394;2023-08-31T09:39:09;9.32;;;3.70;;
23539;SDS011;11947;50.810;4.394;2023-08-31T09:41:36;12.15;;;4.47;;
23539;SDS011;11947;50.810;4.394;2023-08-31T09:44:20;12.38;;;4.05;;
23539;SDS011;11947;50.810;4.394;2023-08-31T09:46:47;10.98;;;4.00;;
23539;SDS011;11947;50.810;4.394;2023-08-31T09:49:13;9.50;;;3.78;;
23539;SDS011;11947;50.810;4.394;2023-08-31T09:51:44;7.32;;;3.65;;
23539;SDS011;11947;50.810;4.394;2023-08-31T09:54:14;10.30;;;3.80;;
23539;SDS011;11947;50.810;4.394;2023-08-31T09:56:42;9.27;;;3.50;;
23539;SDS011;11947;50.810;4.394;2023-08-31T09:59:12;13.77;;;4.28;;
23539;SDS011;11947;50.810;4.394;2023-08-31T10:01:39;11.05;;;4.10;;
23539;SDS011;11947;50.810;4.394;2023-08-31T10:04:06;11.70;;;4.03;;
23539;SDS011;11947;50.810;4.394;2023-08-31T10:06:34;9.55;;;4.18;;
23539;SDS011;11947;50.810;4.394;2023-08-31T10:09:06;12.55;;;3.78;;
23539;SDS011;11947;50.810;4.394;2023-08-31T10:11:34;9.27;;;3.10;;
23539;SDS011;11947;50.810;4.394;2023-08-31T10:14:02;8.05;;;3.08;;
23539;SDS011;11947;50.810;4.394;2023-08-31T10:16:29;11.57;;;3.25;;
23539;SDS011;11947;50.810;4.394;2023-08-31T10:18:55;10.75;;;3.13;;
23539;SDS011;11947;50.810;4.394;2023-08-31T10:21:21;7.13;;;2.70;;
23539;SDS011;11947;50.810;4.394;2023-08-31T10:23:47;9.23;;;3.05;;
23539;SDS011;11947;50.810;4.394;2023-08-31T10:28:49;10.13;;;3.28;;
23539;SDS011;11947;50.810;4.394;2023-08-31T10:31:15;9.35;;;2.80;;
23539;SDS011;11947;50.810;4.394;2023-08-31T10:33:46;7.63;;;2.88;;
23539;SDS011;11947;50.810;4.394;2023-08-31T10:36:19;12.07;;;3.25;;
23539;SDS011;11947;50.810;4.394;2023-08-31T10:41:23;9.32;;;2.83;;
23539;SDS011;11947;50.810;4.394;2023-08-31T10:43:58;6.93;;;3.40;;
23539;SDS011;11947;50.810;4.394;2023-08-31T10:46:25;8.60;;;2.90;;
23539;SDS011;11947;50.810;4.394;2023-08-31T10:51:35;6.82;;;3.38;;
23539;SDS011;11947;50.810;4.394;2023-08-31T10:54:45;9.07;;;2.90;;
23539;SDS011;11947;50.810;4.394;2023-08-31T10:59:52;10.02;;;3.17;;
23539;SDS011;11947;50.810;4.394;2023-08-31T11:05:06;9.48;;;3.00;;
23539;SDS011;11947;50.810;4.394;2023-08-31T11:07:42;8.50;;;2.83;;
23539;SDS011;11947;50.810;4.394;2023-08-31T11:10:09;10.43;;;3.17;;
23539;SDS011;11947;50.810;4.394;2023-08-31T11:12:39;6.80;;;2.85;;
23539;SDS011;11947;50.810;4.394;2023-08-31T11:15:06;8.48;;;2.80;;
23539;SDS011;11947;50.810;4.394;2023-08-31T11:17:32;6.32;;;2.70;;
23539;SDS011;11947;50.810;4.394;2023-08-31T11:19:59;8.20;;;2.72;;
23539;SDS011;11947;50.810;4.394;2023-08-31T11:22:25;6.60;;;2.22;;
23539;SDS011;11947;50.810;4.394;2023-08-31T11:24:51;22.52;;;3.55;;
23539;SDS011;11947;50.810;4.394;2023-08-31T11:27:20;14.25;;;3.03;;
23539;SDS011;11947;50.810;4.394;2023-08-31T11:29:47;10.40;;;3.25;;
23539;SDS011;11947;50.810;4.394;2023-08-31T11:32:13;12.73;;;2.40;;
23539;SDS011;11947;50.810;4.394;2023-08-31T11:34:43;6.22;;;2.17;;
23539;SDS011;11947;50.810;4.394;2023-08-31T11:37:10;5.65;;;1.95;;
23539;SDS011;11947;50.810;4.394;2023-08-31T11:39:40;7.35;;;2.28;;
23539;SDS011;11947;50.810;4.394;2023-08-31T11:42:16;7.00;;;2.08;;
23539;SDS011;11947;50.810;4.394;2023-08-31T11:44:47;8.25;;;2.40;;
23539;SDS011;11947;50.810;4.394;2023-08-31T11:47:15;7.85;;;2.30;;
23539;SDS011;11947;50.810;4.394;2023-08-31T11:49:42;6.15;;;2.20;;
23539;SDS011;11947;50.810;4.394;2023-08-31T11:52:09;6.22;;;2.38;;
23539;SDS011;11947;50.810;4.394;2023-08-31T11:54:39;6.43;;;2.42;;
23539;SDS011;11947;50.810;4.394;2023-08-31T11:57:06;6.97;;;2.78;;
23539;SDS011;11947;50.810;4.394;2023-08-31T11:59:36;7.93;;;2.47;;
23539;SDS011;11947;50.810;4.394;2023-08-31T12:02:06;5.68;;;2.40;;
23539;SDS011;11947;50.810;4.394;2023-08-31T12:07:11;8.02;;;2.50;;
23539;SDS011;11947;50.810;4.394;2023-08-31T12:09:41;7.55;;;2.50;;
23539;SDS011;11947;50.810;4.394;2023-08-31T12:12:09;6.20;;;2.45;;
23539;SDS011;11947;50.810;4.394;2023-08-31T12:14:37;6.47;;;2.35;;
23539;SDS011;11947;50.810;4.394;2023-08-31T12:17:06;11.10;;;2.50;;
23539;SDS011;11947;50.810;4.394;2023-08-31T12:19:35;8.65;;;2.40;;
23539;SDS011;11947;50.810;4.394;2023-08-31T12:22:02;7.68;;;2.33;;
23539;SDS011;11947;50.810;4.394;2023-08-31T12:24:27;6.38;;;2.70;;
23539;SDS011;11947;50.810;4.394;2023-08-31T12:26:53;6.32;;;2.40;;
23539;SDS011;11947;50.810;4.394;2023-08-31T12:29:19;7.72;;;2.33;;
23539;SDS011;11947;50.810;4.394;2023-08-31T12:31:45;6.25;;;2.50;;
23539;SDS011;11947;50.810;4.394;2023-08-31T12:34:11;6.85;;;2.20;;
23539;SDS011;11947;50.810;4.394;2023-08-31T12:36:37;7.65;;;2.08;;
23539;SDS011;11947;50.810;4.394;2023-08-31T12:39:05;9.45;;;2.13;;
23539;SDS011;11947;50.810;4.394;2023-08-31T12:41:34;12.48;;;2.25;;
23539;SDS011;11947;50.810;4.394;2023-08-31T12:44:00;7.47;;;1.90;;
23539;SDS011;11947;50.810;4.394;2023-08-31T12:46:28;7.60;;;2.10;;
23539;SDS011;11947;50.810;4.394;2023-08-31T12:48:54;8.05;;;2.45;;
23539;SDS011;11947;50.810;4.394;2023-08-31T12:51:20;8.45;;;2.20;;
23539;SDS011;11947;50.810;4.394;2023-08-31T12:53:45;4.68;;;1.90;;
23539;SDS011;11947;50.810;4.394;2023-08-31T12:56:11;4.90;;;2.10;;
23539;SDS011;11947;50.810;4.394;2023-08-31T12:58:38;10.32;;;2.38;;
23539;SDS011;11947;50.810;4.394;2023-08-31T13:01:04;7.03;;;2.75;;
23539;SDS011;11947;50.810;4.394;2023-08-31T13:03:30;7.60;;;2.30;;
23539;SDS011;11947;50.810;4.394;2023-08-31T13:05:55;5.53;;;1.70;;
23539;SDS011;11947;50.810;4.394;2023-08-31T13:08:21;3.88;;;1.63;;
23539;SDS011;11947;50.810;4.394;2023-08-31T13:10:53;9.65;;;2.08;;
23539;SDS011;11947;50.810;4.394;2023-08-31T13:15:48;5.55;;;1.73;;
23539;SDS011;11947;50.810;4.394;2023-08-31T13:18:14;5.05;;;1.83;;
23539;SDS011;11947;50.810;4.394;2023-08-31T13:20:40;7.78;;;1.98;;
23539;SDS011;11947;50.810;4.394;2023-08-31T13:23:13;6.07;;;2.30;;
23539;SDS011;11947;50.810;4.394;2023-08-31T13:25:39;6.18;;;2.30;;
23539;SDS011;11947;50.810;4.394;2023-08-31T13:28:04;6.68;;;2.05;;
23539;SDS011;11947;50.810;4.394;2023-08-31T13:30:30;4.65;;;1.80;;
23539;SDS011;11947;50.810;4.394;2023-08-31T13:32:56;11.13;;;2.50;;
23539;SDS011;11947;50.810;4.394;2023-08-31T13:35:22;10.57;;;2.55;;
23539;SDS011;11947;50.810;4.394;2023-08-31T13:37:47;6.72;;;1.90;;
23539;SDS011;11947;50.810;4.394;2023-08-31T13:40:13;6.00;;;2.40;;
23539;SDS011;11947;50.810;4.394;2023-08-31T13:42:47;6.45;;;2.60;;
23539;SDS011;11947;50.810;4.394;2023-08-31T13:45:28;5.95;;;2.40;;
23539;SDS011;11947;50.810;4.394;2023-08-31T13:47:55;6.45;;;1.98;;
23539;SDS011;11947;50.810;4.394;2023-08-31T13:50:21;8.05;;;2.40;;
23539;SDS011;11947;50.810;4.394;2023-08-31T13:52:46;7.85;;;2.58;;
23539;SDS011;11947;50.810;4.394;2023-08-31T13:55:12;6.35;;;2.30;;
23539;SDS011;11947;50.810;4.394;2023-08-31T13:57:41;5.95;;;2.30;;
23539;SDS011;11947;50.810;4.394;2023-08-31T14:00:07;6.22;;;2.00;;
23539;SDS011;11947;50.810;4.394;2023-08-31T14:02:34;6.60;;;2.40;;
23539;SDS011;11947;50.810;4.394;2023-08-31T14:05:01;9.02;;;2.53;;
23539;SDS011;11947;50.810;4.394;2023-08-31T14:07:28;5.43;;;2.40;;
23539;SDS011;11947;50.810;4.394;2023-08-31T14:09:53;8.85;;;2.50;;
23539;SDS011;11947;50.810;4.394;2023-08-31T14:12:19;6.82;;;2.30;;
23539;SDS011;11947;50.810;4.394;2023-08-31T14:14:45;7.57;;;2.90;;
23539;SDS011;11947;50.810;4.394;2023-08-31T14:17:11;11.30;;;2.90;;
23539;SDS011;11947;50.810;4.394;2023-08-31T14:19:37;9.85;;;3.00;;
23539;SDS011;11947;50.810;4.394;2023-08-31T14:22:04;9.88;;;2.95;;
23539;SDS011;11947;50.810;4.394;2023-08-31T14:24:30;8.38;;;2.70;;
23539;SDS011;11947;50.810;4.394;2023-08-31T14:26:55;13.02;;;3.13;;
23539;SDS011;11947;50.810;4.394;2023-08-31T14:29:22;7.40;;;2.70;;
23539;SDS011;11947;50.810;4.394;2023-08-31T14:31:48;12.98;;;3.20;;
23539;SDS011;11947;50.810;4.394;2023-08-31T14:34:13;13.48;;;3.08;;
23539;SDS011;11947;50.810;4.394;2023-08-31T14:36:39;9.02;;;3.17;;
23539;SDS011;11947;50.810;4.394;2023-08-31T14:39:05;10.93;;;2.83;;
23539;SDS011;11947;50.810;4.394;2023-08-31T14:41:30;7.03;;;2.60;;
23539;SDS011;11947;50.810;4.394;2023-08-31T14:43:56;6.13;;;2.95;;
23539;SDS011;11947;50.810;4.394;2023-08-31T14:46:22;10.63;;;3.10;;
23539;SDS011;11947;50.810;4.394;2023-08-31T14:48:49;8.13;;;2.83;;
23539;SDS011;11947;50.810;4.394;2023-08-31T14:51:15;7.72;;;3.00;;
23539;SDS011;11947;50.810;4.394;2023-08-31T14:53:41;9.55;;;3.33;;
23539;SDS011;11947;50.810;4.394;2023-08-31T14:56:07;9.23;;;2.70;;
23539;SDS011;11947;50.810;4.394;2023-08-31T14:58:33;8.65;;;2.65;;
23539;SDS011;11947;50.810;4.394;2023-08-31T15:00:58;9.43;;;2.70;;
23539;SDS011;11947;50.810;4.394;2023-08-31T15:03:24;10.82;;;3.10;;
23539;SDS011;11947;50.810;4.394;2023-08-31T15:05:50;11.50;;;2.92;;
23539;SDS011;11947;50.810;4.394;2023-08-31T15:08:16;10.27;;;2.90;;
23539;SDS011;11947;50.810;4.394;2023-08-31T15:10:41;11.02;;;3.10;;
23539;SDS011;11947;50.810;4.394;2023-08-31T15:13:07;12.65;;;2.92;;
23539;SDS011;11947;50.810;4.394;2023-08-31T15:15:33;11.27;;;2.90;;
23539;SDS011;11947;50.810;4.394;2023-08-31T15:17:58;10.68;;;2.70;;
23539;SDS011;11947;50.810;4.394;2023-08-31T15:20:25;6.88;;;2.72;;
23539;SDS011;11947;50.810;4.394;2023-08-31T15:22:52;6.82;;;2.35;;
23539;SDS011;11947;50.810;4.394;2023-08-31T15:25:18;10.95;;;2.90;;
23539;SDS011;11947;50.810;4.394;2023-08-31T15:27:43;7.00;;;2.45;;
23539;SDS011;11947;50.810;4.394;2023-08-31T15:30:09;8.20;;;2.67;;
23539;SDS011;11947;50.810;4.394;2023-08-31T15:32:36;8.60;;;2.80;;
23539;SDS011;11947;50.810;4.394;2023-08-31T15:35:02;9.43;;;2.83;;
23539;SDS011;11947;50.810;4.394;2023-08-31T15:37:28;12.13;;;2.50;;
23539;SDS011;11947;50.810;4.394;2023-08-31T15:39:54;7.88;;;2.63;;
23539;SDS011;11947;50.810;4.394;2023-08-31T15:42:22;8.65;;;2.50;;
23539;SDS011;11947;50.810;4.394;2023-08-31T15:44:50;10.02;;;2.78;;
23539;SDS011;11947;50.810;4.394;2023-08-31T15:47:17;10.68;;;2.70;;
23539;SDS011;11947;50.810;4.394;2023-08-31T15:49:43;7.20;;;2.35;;
23539;SDS011;11947;50.810;4.394;2023-08-31T15:52:09;11.38;;;2.70;;
23539;SDS011;11947;50.810;4.394;2023-08-31T15:54:34;13.18;;;2.47;;
23539;SDS011;11947;50.810;4.394;2023-08-31T15:57:00;10.77;;;2.95;;
23539;SDS011;11947;50.810;4.394;2023-08-31T15:59:26;13.02;;;2.90;;
23539;SDS011;11947;50.810;4.394;2023-08-31T16:01:51;8.88;;;2.58;;
23539;SDS011;11947;50.810;4.394;2023-08-31T16:04:17;8.85;;;2.85;;
23539;SDS011;11947;50.810;4.394;2023-08-31T16:06:43;8.27;;;2.63;;
23539;SDS011;11947;50.810;4.394;2023-08-31T16:09:08;10.50;;;3.03;;
23539;SDS011;11947;50.810;4.394;2023-08-31T16:11:34;11.88;;;2.97;;
23539;SDS011;11947;50.810;4.394;2023-08-31T16:14:00;11.52;;;2.90;;
23539;SDS011;11947;50.810;4.394;2023-08-31T16:16:26;9.13;;;2.97;;
23539;SDS011;11947;50.810;4.394;2023-08-31T16:18:51;7.97;;;2.92;;
23539;SDS011;11947;50.810;4.394;2023-08-31T16:21:17;6.72;;;2.60;;
23539;SDS011;11947;50.810;4.394;2023-08-31T16:23:43;10.05;;;2.88;;
23539;SDS011;11947;50.810;4.394;2023-08-31T16:26:09;13.82;;;3.67;;
23539;SDS011;11947;50.810;4.394;2023-08-31T16:28:35;17.00;;;3.53;;
23539;SDS011;11947;50.810;4.394;2023-08-31T16:31:01;14.52;;;3.22;;
23539;SDS011;11947;50.810;4.394;2023-08-31T16:33:28;15.55;;;3.20;;
23539;SDS011;11947;50.810;4.394;2023-08-31T16:36:00;9.50;;;3.17;;
23539;SDS011;11947;50.810;4.394;2023-08-31T16:38:30;12.13;;;3.63;;
23539;SDS011;11947;50.810;4.394;2023-08-31T16:40:56;12.02;;;3.65;;
23539;SDS011;11947;50.810;4.394;2023-08-31T16:43:22;10.27;;;3.30;;
23539;SDS011;11947;50.810;4.394;2023-08-31T16:45:51;11.13;;;3.20;;
23539;SDS011;11947;50.810;4.394;2023-08-31T16:48:17;11.32;;;3.40;;
23539;SDS011;11947;50.810;4.394;2023-08-31T16:50:43;13.63;;;3.85;;
23539;SDS011;11947;50.810;4.394;2023-08-31T16:53:08;16.67;;;3.65;;
23539;SDS011;11947;50.810;4.394;2023-08-31T16:55:37;7.93;;;3.20;;
23539;SDS011;11947;50.810;4.394;2023-08-31T16:58:12;12.10;;;3.67;;
23539;SDS011;11947;50.810;4.394;2023-08-31T17:00:38;12.18;;;3.53;;
23539;SDS011;11947;50.810;4.394;2023-08-31T17:03:03;12.38;;;3.58;;
23539;SDS011;11947;50.810;4.394;2023-08-31T17:05:30;15.13;;;3.50;;
23539;SDS011;11947;50.810;4.394;2023-08-31T17:07:56;13.52;;;3.70;;
23539;SDS011;11947;50.810;4.394;2023-08-31T17:10:22;10.23;;;3.25;;
23539;SDS011;11947;50.810;4.394;2023-08-31T17:12:47;11.43;;;3.45;;
23539;SDS011;11947;50.810;4.394;2023-08-31T17:15:13;15.45;;;3.92;;
23539;SDS011;11947;50.810;4.394;2023-08-31T17:17:39;12.68;;;3.50;;
23539;SDS011;11947;50.810;4.394;2023-08-31T17:20:08;15.25;;;3.80;;
23539;SDS011;11947;50.810;4.394;2023-08-31T17:22:43;12.50;;;3.25;;
23539;SDS011;11947;50.810;4.394;2023-08-31T17:25:09;9.20;;;3.33;;
23539;SDS011;11947;50.810;4.394;2023-08-31T17:27:35;9.32;;;3.40;;
23539;SDS011;11947;50.810;4.394;2023-08-31T17:30:01;10.40;;;3.28;;
23539;SDS011;11947;50.810;4.394;2023-08-31T17:32:31;10.07;;;3.50;;
23539;SDS011;11947;50.810;4.394;2023-08-31T17:34:57;11.10;;;4.30;;
23539;SDS011;11947;50.810;4.394;2023-08-31T17:37:23;11.35;;;4.03;;
23539;SDS011;11947;50.810;4.394;2023-08-31T17:39:50;14.93;;;4.20;;
23539;SDS011;11947;50.810;4.394;2023-08-31T17:42:16;13.35;;;4.65;;
23539;SDS011;11947;50.810;4.394;2023-08-31T17:44:42;10.70;;;4.13;;
23539;SDS011;11947;50.810;4.394;2023-08-31T17:47:10;12.18;;;4.13;;
23539;SDS011;11947;50.810;4.394;2023-08-31T17:49:36;16.17;;;4.22;;
23539;SDS011;11947;50.810;4.394;2023-08-31T17:52:01;13.75;;;3.88;;
23539;SDS011;11947;50.810;4.394;2023-08-31T17:54:27;14.73;;;3.97;;
23539;SDS011;11947;50.810;4.394;2023-08-31T17:56:53;16.42;;;4.28;;
23539;SDS011;11947;50.810;4.394;2023-08-31T17:59:18;21.08;;;4.15;;
23539;SDS011;11947;50.810;4.394;2023-08-31T18:01:44;10.32;;;4.18;;
23539;SDS011;11947;50.810;4.394;2023-08-31T18:04:10;9.23;;;4.38;;
23539;SDS011;11947;50.810;4.394;2023-08-31T18:06:37;13.75;;;5.03;;
23539;SDS011;11947;50.810;4.394;2023-08-31T18:09:03;13.15;;;4.55;;
23539;SDS011;11947;50.810;4.394;2023-08-31T18:11:34;12.95;;;4.70;;
23539;SDS011;11947;50.810;4.394;2023-08-31T18:14:02;13.82;;;5.03;;
23539;SDS011;11947;50.810;4.394;2023-08-31T18:16:28;12.27;;;4.82;;
23539;SDS011;11947;50.810;4.394;2023-08-31T18:18:54;12.50;;;5.05;;
23539;SDS011;11947;50.810;4.394;2023-08-31T18:21:23;12.63;;;4.60;;
23539;SDS011;11947;50.810;4.394;2023-08-31T18:23:49;14.23;;;4.78;;
23539;SDS011;11947;50.810;4.394;2023-08-31T18:26:14;18.00;;;6.22;;
23539;SDS011;11947;50.810;4.394;2023-08-31T18:28:40;16.42;;;5.15;;
23539;SDS011;11947;50.810;4.394;2023-08-31T18:31:05;14.68;;;5.20;;
23539;SDS011;11947;50.810;4.394;2023-08-31T18:33:31;12.10;;;4.72;;
23539;SDS011;11947;50.810;4.394;2023-08-31T18:35:57;13.80;;;5.25;;
23539;SDS011;11947;50.810;4.394;2023-08-31T18:38:27;16.20;;;4.93;;
23539;SDS011;11947;50.810;4.394;2023-08-31T18:40:53;17.30;;;5.43;;
23539;SDS011;11947;50.810;4.394;2023-08-31T18:43:19;14.75;;;5.45;;
23539;SDS011;11947;50.810;4.394;2023-08-31T18:45:46;14.40;;;6.28;;
23539;SDS011;11947;50.810;4.394;2023-08-31T18:48:13;16.98;;;5.72;;
23539;SDS011;11947;50.810;4.394;2023-08-31T18:50:40;18.67;;;5.22;;
23539;SDS011;11947;50.810;4.394;2023-08-31T18:53:06;16.15;;;5.80;;
23539;SDS011;11947;50.810;4.394;2023-08-31T18:55:33;15.50;;;5.40;;
23539;SDS011;11947;50.810;4.394;2023-08-31T18:57:59;12.57;;;4.97;;
23539;SDS011;11947;50.810;4.394;2023-08-31T19:00:25;15.20;;;5.00;;
23539;SDS011;11947;50.810;4.394;2023-08-31T19:02:51;12.60;;;4.80;;
23539;SDS011;11947;50.810;4.394;2023-08-31T19:05:17;16.15;;;5.55;;
23539;SDS011;11947;50.810;4.394;2023-08-31T19:07:42;13.38;;;4.97;;
23539;SDS011;11947;50.810;4.394;2023-08-31T19:10:08;11.13;;;4.78;;
23539;SDS011;11947;50.810;4.394;2023-08-31T19:12:36;12.13;;;4.85;;
23539;SDS011;11947;50.810;4.394;2023-08-31T19:15:01;12.80;;;5.13;;
23539;SDS011;11947;50.810;4.394;2023-08-31T19:17:28;12.10;;;5.20;;
23539;SDS011;11947;50.810;4.394;2023-08-31T19:19:54;15.10;;;5.95;;
23539;SDS011;11947;50.810;4.394;2023-08-31T19:22:20;12.60;;;5.55;;